sensor_id;sensor_type;location;lat;lon;timestamp;pressure;altitude;pressure_sealevel;temperature
67966;BMP280;54749;47.850;9.002;2022-10-31T00:01:00;96518.19;;;7.96
67966;BMP280;54749;47.850;9.002;2022-10-31T00:03:38;96527.31;;;7.97
67966;BMP280;54749;47.850;9.002;2022-10-31T00:06:05;96518.31;;;7.93
67966;BMP280;54749;47.850;9.002;2022-10-31T00:08:32;96513.72;;;8.01
67966;BMP280;54749;47.850;9.002;2022-10-31T00:10:58;96513.63;;;8.02
67966;BMP280;54749;47.850;9.002;2022-10-31T00:13:25;96519.53;;;8.01
67966;BMP280;54749;47.850;9.002;2022-10-31T00:15:52;96518.50;;;8.05
67966;BMP280;54749;47.850;9.002;2022-10-31T00:18:19;96533.34;;;8.09
67966;BMP280;54749;47.850;9.002;2022-10-31T00:20:46;96524.44;;;8.04
67966;BMP280;54749;47.850;9.002;2022-10-31T00:23:13;96530.69;;;7.97
67966;BMP280;54749;47.850;9.002;2022-10-31T00:25:39;96518.25;;;7.94
67966;BMP280;54749;47.850;9.002;2022-10-31T00:28:08;96523.34;;;7.93
67966;BMP280;54749;47.850;9.002;2022-10-31T00:30:37;96516.00;;;7.90
67966;BMP280;54749;47.850;9.002;2022-10-31T00:33:04;96507.81;;;7.87
67966;BMP280;54749;47.850;9.002;2022-10-31T00:35:32;96516.44;;;7.83
67966;BMP280;54749;47.850;9.002;2022-10-31T00:38:06;96522.59;;;7.77
67966;BMP280;54749;47.850;9.002;2022-10-31T00:40:37;96525.19;;;7.76
67966;BMP280;54749;47.850;9.002;2022-10-31T00:43:06;96526.34;;;7.70
67966;BMP280;54749;47.850;9.002;2022-10-31T00:45:34;96522.31;;;7.68
67966;BMP280;54749;47.850;9.002;2022-10-31T00:48:05;96520.53;;;7.70
67966;BMP280;54749;47.850;9.002;2022-10-31T00:50:36;96530.41;;;7.73
67966;BMP280;54749;47.850;9.002;2022-10-31T00:53:15;96525.19;;;7.76
67966;BMP280;54749;47.850;9.002;2022-10-31T00:55:50;96531.84;;;7.77
67966;BMP280;54749;47.850;9.002;2022-10-31T00:58:23;96532.50;;;7.80
67966;BMP280;54749;47.850;9.002;2022-10-31T01:00:52;96519.84;;;7.82
67966;BMP280;54749;47.850;9.002;2022-10-31T01:03:28;96519.66;;;7.85
67966;BMP280;54749;47.850;9.002;2022-10-31T01:06:00;96528.56;;;7.90
67966;BMP280;54749;47.850;9.002;2022-10-31T01:08:36;96529.94;;;7.95
67966;BMP280;54749;47.850;9.002;2022-10-31T01:11:16;96516.31;;;7.99
67966;BMP280;54749;47.850;9.002;2022-10-31T01:13:44;96511.03;;;8.04
67966;BMP280;54749;47.850;9.002;2022-10-31T01:16:17;96513.72;;;8.14
67966;BMP280;54749;47.850;9.002;2022-10-31T01:19:13;96505.66;;;8.23
67966;BMP280;54749;47.850;9.002;2022-10-31T01:21:58;96510.41;;;8.27
67966;BMP280;54749;47.850;9.002;2022-10-31T01:24:36;96502.50;;;8.33
67966;BMP280;54749;47.850;9.002;2022-10-31T01:27:36;96510.34;;;8.42
67966;BMP280;54749;47.850;9.002;2022-10-31T01:30:24;96504.22;;;8.46
67966;BMP280;54749;47.850;9.002;2022-10-31T01:32:57;96501.38;;;8.52
67966;BMP280;54749;47.850;9.002;2022-10-31T01:35:45;96511.78;;;8.60
67966;BMP280;54749;47.850;9.002;2022-10-31T01:38:22;96510.72;;;8.64
67966;BMP280;54749;47.850;9.002;2022-10-31T01:40:58;96513.94;;;8.66
67966;BMP280;54749;47.850;9.002;2022-10-31T01:43:54;96503.69;;;8.69
67966;BMP280;54749;47.850;9.002;2022-10-31T01:46:32;96497.56;;;8.73
67966;BMP280;54749;47.850;9.002;2022-10-31T01:49:11;96500.78;;;8.74
67966;BMP280;54749;47.850;9.002;2022-10-31T01:57:26;96489.09;;;8.87
67966;BMP280;54749;47.850;9.002;2022-10-31T01:59:57;96476.50;;;8.87
67966;BMP280;54749;47.850;9.002;2022-10-31T02:02:27;96476.28;;;8.90
67966;BMP280;54749;47.850;9.002;2022-10-31T02:04:56;96487.00;;;8.93
67966;BMP280;54749;47.850;9.002;2022-10-31T02:07:39;96481.75;;;8.96
67966;BMP280;54749;47.850;9.002;2022-10-31T02:10:08;96478.47;;;8.96
67966;BMP280;54749;47.850;9.002;2022-10-31T02:12:38;96475.00;;;8.97
67966;BMP280;54749;47.850;9.002;2022-10-31T02:15:05;96475.72;;;8.99
67966;BMP280;54749;47.850;9.002;2022-10-31T02:17:33;96476.34;;;9.02
67966;BMP280;54749;47.850;9.002;2022-10-31T02:34:21;96480.47;;;9.17
67966;BMP280;54749;47.850;9.002;2022-10-31T02:36:57;96470.47;;;9.15
67966;BMP280;54749;47.850;9.002;2022-10-31T02:47:58;96452.19;;;9.38
67966;BMP280;54749;47.850;9.002;2022-10-31T02:50:35;96453.09;;;9.37
67966;BMP280;54749;47.850;9.002;2022-10-31T02:53:04;96457.03;;;9.41
67966;BMP280;54749;47.850;9.002;2022-10-31T02:58:12;96451.94;;;9.54
67966;BMP280;54749;47.850;9.002;2022-10-31T03:01:14;96450.63;;;9.61
67966;BMP280;54749;47.850;9.002;2022-10-31T03:03:57;96451.06;;;9.67
67966;BMP280;54749;47.850;9.002;2022-10-31T03:06:38;96461.56;;;9.74
67966;BMP280;54749;47.850;9.002;2022-10-31T03:12:05;96450.81;;;9.84
67966;BMP280;54749;47.850;9.002;2022-10-31T03:14:43;96451.31;;;9.89
67966;BMP280;54749;47.850;9.002;2022-10-31T03:17:33;96442.94;;;9.88
67966;BMP280;54749;47.850;9.002;2022-10-31T03:20:04;96453.75;;;9.90
67966;BMP280;54749;47.850;9.002;2022-10-31T03:22:33;96453.53;;;9.93
67966;BMP280;54749;47.850;9.002;2022-10-31T03:25:02;96448.50;;;9.93
67966;BMP280;54749;47.850;9.002;2022-10-31T03:27:34;96462.84;;;9.93
67966;BMP280;54749;47.850;9.002;2022-10-31T03:30:04;96451.03;;;9.93
67966;BMP280;54749;47.850;9.002;2022-10-31T03:32:48;96452.66;;;9.94
67966;BMP280;54749;47.850;9.002;2022-10-31T03:35:18;96451.63;;;9.97
67966;BMP280;54749;47.850;9.002;2022-10-31T03:37:47;96443.06;;;9.99
67966;BMP280;54749;47.850;9.002;2022-10-31T03:40:16;96452.94;;;10.02
67966;BMP280;54749;47.850;9.002;2022-10-31T03:42:59;96447.06;;;10.01
67966;BMP280;54749;47.850;9.002;2022-10-31T03:45:30;96444.25;;;10.06
67966;BMP280;54749;47.850;9.002;2022-10-31T03:47:59;96430.63;;;10.08
67966;BMP280;54749;47.850;9.002;2022-10-31T03:50:35;96443.13;;;10.10
67966;BMP280;54749;47.850;9.002;2022-10-31T03:53:14;96442.16;;;10.12
67966;BMP280;54749;47.850;9.002;2022-10-31T03:55:50;96436.28;;;10.12
67966;BMP280;54749;47.850;9.002;2022-10-31T03:58:23;96432.84;;;10.13
67966;BMP280;54749;47.850;9.002;2022-10-31T04:00:54;96437.78;;;10.14
67966;BMP280;54749;47.850;9.002;2022-10-31T04:03:26;96435.09;;;10.17
67966;BMP280;54749;47.850;9.002;2022-10-31T04:05:58;96437.59;;;10.17
67966;BMP280;54749;47.850;9.002;2022-10-31T04:08:30;96434.16;;;10.18
67966;BMP280;54749;47.850;9.002;2022-10-31T04:10:59;96429.91;;;10.18
67966;BMP280;54749;47.850;9.002;2022-10-31T04:13:29;96432.66;;;10.15
67966;BMP280;54749;47.850;9.002;2022-10-31T04:16:02;96426.06;;;10.13
67966;BMP280;54749;47.850;9.002;2022-10-31T04:18:29;96428.72;;;10.12
67966;BMP280;54749;47.850;9.002;2022-10-31T04:21:01;96424.56;;;10.11
67966;BMP280;54749;47.850;9.002;2022-10-31T04:23:30;96439.81;;;10.09
67966;BMP280;54749;47.850;9.002;2022-10-31T04:25:59;96442.44;;;10.08
67966;BMP280;54749;47.850;9.002;2022-10-31T04:28:26;96434.97;;;10.06
67966;BMP280;54749;47.850;9.002;2022-10-31T04:30:53;96434.88;;;10.08
67966;BMP280;54749;47.850;9.002;2022-10-31T04:33:21;96424.06;;;10.06
67966;BMP280;54749;47.850;9.002;2022-10-31T04:35:49;96430.94;;;10.04
67966;BMP280;54749;47.850;9.002;2022-10-31T04:38:17;96427.91;;;9.99
67966;BMP280;54749;47.850;9.002;2022-10-31T04:40:45;96412.03;;;9.97
67966;BMP280;54749;47.850;9.002;2022-10-31T04:43:31;96407.09;;;9.96
67966;BMP280;54749;47.850;9.002;2022-10-31T04:45:59;96410.41;;;9.96
67966;BMP280;54749;47.850;9.002;2022-10-31T04:48:27;96403.84;;;9.94
67966;BMP280;54749;47.850;9.002;2022-10-31T04:51:01;96405.56;;;9.93
67966;BMP280;54749;47.850;9.002;2022-10-31T04:53:29;96413.16;;;9.93
67966;BMP280;54749;47.850;9.002;2022-10-31T04:56:27;96409.94;;;9.91
67966;BMP280;54749;47.850;9.002;2022-10-31T04:59:18;96404.97;;;9.90
67966;BMP280;54749;47.850;9.002;2022-10-31T05:01:50;96412.53;;;9.90
67966;BMP280;54749;47.850;9.002;2022-10-31T05:04:22;96399.03;;;9.91
67966;BMP280;54749;47.850;9.002;2022-10-31T05:06:51;96414.97;;;9.91
67966;BMP280;54749;47.850;9.002;2022-10-31T05:09:24;96406.47;;;9.92
67966;BMP280;54749;47.850;9.002;2022-10-31T05:11:53;96408.31;;;9.90
67966;BMP280;54749;47.850;9.002;2022-10-31T05:14:42;96394.78;;;9.91
67966;BMP280;54749;47.850;9.002;2022-10-31T05:17:40;96394.78;;;9.91
67966;BMP280;54749;47.850;9.002;2022-10-31T05:20:50;96402.53;;;9.88
67966;BMP280;54749;47.850;9.002;2022-10-31T05:23:36;96396.00;;;9.86
67966;BMP280;54749;47.850;9.002;2022-10-31T05:26:16;96392.88;;;9.82
67966;BMP280;54749;47.850;9.002;2022-10-31T05:28:52;96393.03;;;9.80
67966;BMP280;54749;47.850;9.002;2022-10-31T05:31:22;96381.44;;;9.77
67966;BMP280;54749;47.850;9.002;2022-10-31T05:33:55;96388.19;;;9.77
67966;BMP280;54749;47.850;9.002;2022-10-31T05:36:44;96393.25;;;9.77
67966;BMP280;54749;47.850;9.002;2022-10-31T05:39:20;96385.03;;;9.73
67966;BMP280;54749;47.850;9.002;2022-10-31T05:41:55;96383.72;;;9.68
67966;BMP280;54749;47.850;9.002;2022-10-31T05:44:25;96377.06;;;9.67
67966;BMP280;54749;47.850;9.002;2022-10-31T05:47:07;96377.78;;;9.69
67966;BMP280;54749;47.850;9.002;2022-10-31T05:49:53;96365.75;;;9.72
67966;BMP280;54749;47.850;9.002;2022-10-31T05:52:38;96373.13;;;9.75
67966;BMP280;54749;47.850;9.002;2022-10-31T05:55:28;96367.91;;;9.78
67966;BMP280;54749;47.850;9.002;2022-10-31T05:58:06;96372.16;;;9.78
67966;BMP280;54749;47.850;9.002;2022-10-31T06:00:35;96370.44;;;9.78
67966;BMP280;54749;47.850;9.002;2022-10-31T06:03:08;96362.97;;;9.77
67966;BMP280;54749;47.850;9.002;2022-10-31T06:05:53;96353.94;;;9.73
67966;BMP280;54749;47.850;9.002;2022-10-31T06:08:24;96359.13;;;10.08
67966;BMP280;54749;47.850;9.002;2022-10-31T06:10:52;96353.53;;;10.62
67966;BMP280;54749;47.850;9.002;2022-10-31T06:13:32;96359.50;;;10.61
67966;BMP280;54749;47.850;9.002;2022-10-31T06:16:08;96367.00;;;10.50
67966;BMP280;54749;47.850;9.002;2022-10-31T06:18:38;96353.38;;;10.41
67966;BMP280;54749;47.850;9.002;2022-10-31T06:21:04;96362.50;;;10.31
67966;BMP280;54749;47.850;9.002;2022-10-31T06:23:31;96350.72;;;10.19
67966;BMP280;54749;47.850;9.002;2022-10-31T06:26:18;96350.81;;;10.06
67966;BMP280;54749;47.850;9.002;2022-10-31T06:28:45;96342.97;;;9.98
67966;BMP280;54749;47.850;9.002;2022-10-31T06:31:24;96359.72;;;9.99
67966;BMP280;54749;47.850;9.002;2022-10-31T06:33:50;96354.19;;;9.94
67966;BMP280;54749;47.850;9.002;2022-10-31T06:36:17;96360.44;;;9.89
67966;BMP280;54749;47.850;9.002;2022-10-31T06:38:44;96361.53;;;9.85
67966;BMP280;54749;47.850;9.002;2022-10-31T06:41:12;96352.34;;;9.84
67966;BMP280;54749;47.850;9.002;2022-10-31T06:43:46;96366.28;;;9.89
67966;BMP280;54749;47.850;9.002;2022-10-31T06:46:32;96364.97;;;9.96
67966;BMP280;54749;47.850;9.002;2022-10-31T06:49:19;96351.13;;;10.01
67966;BMP280;54749;47.850;9.002;2022-10-31T06:51:52;96353.34;;;10.06
67966;BMP280;54749;47.850;9.002;2022-10-31T06:54:20;96348.59;;;10.14
67966;BMP280;54749;47.850;9.002;2022-10-31T06:56:48;96353.22;;;10.19
67966;BMP280;54749;47.850;9.002;2022-10-31T06:59:15;96361.00;;;10.29
67966;BMP280;54749;47.850;9.002;2022-10-31T07:02:02;96363.50;;;10.41
67966;BMP280;54749;47.850;9.002;2022-10-31T07:04:29;96354.16;;;10.53
67966;BMP280;54749;47.850;9.002;2022-10-31T07:06:56;96363.78;;;10.49
67966;BMP280;54749;47.850;9.002;2022-10-31T07:09:23;96360.13;;;10.52
67966;BMP280;54749;47.850;9.002;2022-10-31T07:11:52;96365.47;;;10.60
67966;BMP280;54749;47.850;9.002;2022-10-31T07:14:19;96372.63;;;10.66
67966;BMP280;54749;47.850;9.002;2022-10-31T07:16:49;96351.25;;;10.70
67966;BMP280;54749;47.850;9.002;2022-10-31T07:19:22;96354.13;;;10.88
67966;BMP280;54749;47.850;9.002;2022-10-31T07:21:49;96365.91;;;11.00
67966;BMP280;54749;47.850;9.002;2022-10-31T07:24:16;96352.75;;;11.07
67966;BMP280;54749;47.850;9.002;2022-10-31T07:26:42;96356.22;;;11.17
67966;BMP280;54749;47.850;9.002;2022-10-31T07:29:10;96342.41;;;11.33
67966;BMP280;54749;47.850;9.002;2022-10-31T07:31:37;96362.13;;;11.51
67966;BMP280;54749;47.850;9.002;2022-10-31T07:34:11;96356.88;;;11.75
67966;BMP280;54749;47.850;9.002;2022-10-31T07:36:56;96360.50;;;11.94
67966;BMP280;54749;47.850;9.002;2022-10-31T07:39:23;96345.28;;;12.16
67966;BMP280;54749;47.850;9.002;2022-10-31T07:41:50;96354.25;;;12.41
67966;BMP280;54749;47.850;9.002;2022-10-31T07:44:18;96343.78;;;12.67
67966;BMP280;54749;47.850;9.002;2022-10-31T07:46:45;96355.56;;;12.98
67966;BMP280;54749;47.850;9.002;2022-10-31T07:49:30;96352.78;;;13.32
67966;BMP280;54749;47.850;9.002;2022-10-31T07:52:16;96338.75;;;13.48
67966;BMP280;54749;47.850;9.002;2022-10-31T07:55:09;96353.03;;;13.69
67966;BMP280;54749;47.850;9.002;2022-10-31T07:57:36;96340.88;;;13.83
67966;BMP280;54749;47.850;9.002;2022-10-31T08:00:07;96332.19;;;13.85
67966;BMP280;54749;47.850;9.002;2022-10-31T08:02:40;96343.59;;;14.20
67966;BMP280;54749;47.850;9.002;2022-10-31T08:05:30;96347.13;;;14.67
67966;BMP280;54749;47.850;9.002;2022-10-31T08:08:26;96324.94;;;15.79
67966;BMP280;54749;47.850;9.002;2022-10-31T08:10:59;96306.16;;;17.04
67966;BMP280;54749;47.850;9.002;2022-10-31T08:13:25;96314.47;;;18.31
67966;BMP280;54749;47.850;9.002;2022-10-31T08:15:53;96284.72;;;19.34
67966;BMP280;54749;47.850;9.002;2022-10-31T08:18:24;96289.03;;;19.88
67966;BMP280;54749;47.850;9.002;2022-10-31T08:20:51;96296.50;;;20.36
67966;BMP280;54749;47.850;9.002;2022-10-31T08:23:19;96301.16;;;20.33
67966;BMP280;54749;47.850;9.002;2022-10-31T08:25:47;96297.88;;;19.94
67966;BMP280;54749;47.850;9.002;2022-10-31T08:28:14;96282.16;;;19.81
67966;BMP280;54749;47.850;9.002;2022-10-31T08:30:43;96306.84;;;19.51
67966;BMP280;54749;47.850;9.002;2022-10-31T08:33:28;96297.81;;;19.00
67966;BMP280;54749;47.850;9.002;2022-10-31T08:36:14;96298.38;;;18.79
67966;BMP280;54749;47.850;9.002;2022-10-31T08:39:06;96302.25;;;18.50
67966;BMP280;54749;47.850;9.002;2022-10-31T08:41:33;96318.53;;;18.09
67966;BMP280;54749;47.850;9.002;2022-10-31T08:44:02;96331.75;;;17.46
67966;BMP280;54749;47.850;9.002;2022-10-31T08:46:29;96325.78;;;17.03
67966;BMP280;54749;47.850;9.002;2022-10-31T08:48:55;96333.13;;;16.80
67966;BMP280;54749;47.850;9.002;2022-10-31T08:51:23;96347.78;;;16.61
67966;BMP280;54749;47.850;9.002;2022-10-31T08:53:52;96328.34;;;16.51
67966;BMP280;54749;47.850;9.002;2022-10-31T08:56:35;96325.69;;;16.43
67966;BMP280;54749;47.850;9.002;2022-10-31T08:59:07;96335.53;;;15.94
67966;BMP280;54749;47.850;9.002;2022-10-31T09:02:00;96346.16;;;15.52
67966;BMP280;54749;47.850;9.002;2022-10-31T09:04:28;96346.28;;;15.60
67966;BMP280;54749;47.850;9.002;2022-10-31T09:06:55;96348.25;;;15.84
67966;BMP280;54749;47.850;9.002;2022-10-31T09:09:42;96335.66;;;15.92
67966;BMP280;54749;47.850;9.002;2022-10-31T09:12:09;96336.38;;;16.20
67966;BMP280;54749;47.850;9.002;2022-10-31T09:14:54;96322.63;;;16.66
67966;BMP280;54749;47.850;9.002;2022-10-31T09:17:32;96318.88;;;16.87
67966;BMP280;54749;47.850;9.002;2022-10-31T09:20:18;96314.25;;;17.00
67966;BMP280;54749;47.850;9.002;2022-10-31T09:22:45;96312.56;;;17.08
67966;BMP280;54749;47.850;9.002;2022-10-31T09:25:13;96303.59;;;17.38
67966;BMP280;54749;47.850;9.002;2022-10-31T09:27:44;96312.59;;;18.33
67966;BMP280;54749;47.850;9.002;2022-10-31T09:30:11;96287.97;;;19.60
67966;BMP280;54749;47.850;9.002;2022-10-31T09:32:38;96283.59;;;20.60
67966;BMP280;54749;47.850;9.002;2022-10-31T09:35:05;96274.84;;;21.28
67966;BMP280;54749;47.850;9.002;2022-10-31T09:37:33;96262.84;;;21.78
67966;BMP280;54749;47.850;9.002;2022-10-31T09:40:00;96261.53;;;21.82
67966;BMP280;54749;47.850;9.002;2022-10-31T09:42:42;96266.66;;;21.90
67966;BMP280;54749;47.850;9.002;2022-10-31T09:45:45;96269.84;;;21.70
67966;BMP280;54749;47.850;9.002;2022-10-31T09:48:43;96264.25;;;22.31
67966;BMP280;54749;47.850;9.002;2022-10-31T09:51:33;96254.44;;;23.17
67966;BMP280;54749;47.850;9.002;2022-10-31T09:54:17;96254.72;;;23.08
67966;BMP280;54749;47.850;9.002;2022-10-31T09:56:45;96270.53;;;22.85
67966;BMP280;54749;47.850;9.002;2022-10-31T09:59:21;96260.31;;;22.77
67966;BMP280;54749;47.850;9.002;2022-10-31T10:01:58;96276.16;;;22.32
67966;BMP280;54749;47.850;9.002;2022-10-31T10:04:51;96277.22;;;22.65
67966;BMP280;54749;47.850;9.002;2022-10-31T10:10:45;96287.53;;;22.23
67966;BMP280;54749;47.850;9.002;2022-10-31T10:24:49;96268.34;;;23.98
67966;BMP280;54749;47.850;9.002;2022-10-31T10:27:41;96240.91;;;24.30
67966;BMP280;54749;47.850;9.002;2022-10-31T10:30:17;96240.34;;;25.32
67966;BMP280;54749;47.850;9.002;2022-10-31T10:32:46;96219.06;;;26.74
67966;BMP280;54749;47.850;9.002;2022-10-31T10:35:33;96209.34;;;27.91
67966;BMP280;54749;47.850;9.002;2022-10-31T10:40:36;96202.59;;;28.48
67966;BMP280;54749;47.850;9.002;2022-10-31T10:45:50;96215.84;;;28.23
67966;BMP280;54749;47.850;9.002;2022-10-31T10:51:27;96227.16;;;26.48
67966;BMP280;54749;47.850;9.002;2022-10-31T10:55:24;96234.00;;;25.66
67966;BMP280;54749;47.850;9.002;2022-10-31T10:57:45;96247.75;;;24.90
67966;BMP280;54749;47.850;9.002;2022-10-31T11:00:20;96260.69;;;23.90
67966;BMP280;54749;47.850;9.002;2022-10-31T11:02:48;96264.50;;;23.13
67966;BMP280;54749;47.850;9.002;2022-10-31T11:05:53;96280.84;;;22.00
67966;BMP280;54749;47.850;9.002;2022-10-31T11:08:46;96287.72;;;20.69
67966;BMP280;54749;47.850;9.002;2022-10-31T11:13:48;96295.94;;;19.26
67966;BMP280;54749;47.850;9.002;2022-10-31T11:16:29;96282.72;;;18.82
67966;BMP280;54749;47.850;9.002;2022-10-31T11:21:35;96292.09;;;18.01
67966;BMP280;54749;47.850;9.002;2022-10-31T11:26:30;96290.75;;;17.30
67966;BMP280;54749;47.850;9.002;2022-10-31T11:28:59;96280.03;;;17.10
67966;BMP280;54749;47.850;9.002;2022-10-31T11:31:27;96282.31;;;16.86
67966;BMP280;54749;47.850;9.002;2022-10-31T11:33:59;96277.50;;;16.66
67966;BMP280;54749;47.850;9.002;2022-10-31T11:36:30;96281.91;;;16.48
67966;BMP280;54749;47.850;9.002;2022-10-31T11:38:59;96277.81;;;16.54
67966;BMP280;54749;47.850;9.002;2022-10-31T11:41:32;96266.66;;;16.55
67966;BMP280;54749;47.850;9.002;2022-10-31T11:44:13;96273.28;;;16.48
67966;BMP280;54749;47.850;9.002;2022-10-31T11:46:44;96271.69;;;16.48
67966;BMP280;54749;47.850;9.002;2022-10-31T11:51:56;96280.66;;;15.80
67966;BMP280;54749;47.850;9.002;2022-10-31T11:54:30;96274.19;;;15.86
67966;BMP280;54749;47.850;9.002;2022-10-31T11:56:59;96275.41;;;15.91
67966;BMP280;54749;47.850;9.002;2022-10-31T11:59:27;96268.94;;;16.06
67966;BMP280;54749;47.850;9.002;2022-10-31T12:01:57;96267.91;;;16.25
67966;BMP280;54749;47.850;9.002;2022-10-31T12:04:46;96264.13;;;16.29
67966;BMP280;54749;47.850;9.002;2022-10-31T12:07:14;96252.63;;;16.16
67966;BMP280;54749;47.850;9.002;2022-10-31T12:09:41;96244.56;;;16.20
67966;BMP280;54749;47.850;9.002;2022-10-31T12:28:00;96236.78;;;16.22
67966;BMP280;54749;47.850;9.002;2022-10-31T12:30:57;96239.88;;;16.16
67966;BMP280;54749;47.850;9.002;2022-10-31T12:33:37;96244.19;;;16.15
67966;BMP280;54749;47.850;9.002;2022-10-31T12:41:46;96226.19;;;16.43
67966;BMP280;54749;47.850;9.002;2022-10-31T12:49:46;96191.50;;;16.67
67966;BMP280;54749;47.850;9.002;2022-10-31T12:55:17;96174.56;;;17.17
67966;BMP280;54749;47.850;9.002;2022-10-31T12:57:50;96183.94;;;17.58
67966;BMP280;54749;47.850;9.002;2022-10-31T13:00:19;96160.31;;;17.89
67966;BMP280;54749;47.850;9.002;2022-10-31T13:03:17;96158.09;;;17.94
67966;BMP280;54749;47.850;9.002;2022-10-31T13:05:53;96157.53;;;18.15
67966;BMP280;54749;47.850;9.002;2022-10-31T13:08:29;96141.66;;;17.96
67966;BMP280;54749;47.850;9.002;2022-10-31T13:11:24;96156.97;;;17.64
67966;BMP280;54749;47.850;9.002;2022-10-31T13:13:59;96145.50;;;17.43
67966;BMP280;54749;47.850;9.002;2022-10-31T13:16:32;96138.78;;;17.42
67966;BMP280;54749;47.850;9.002;2022-10-31T13:19:17;96137.44;;;17.30
67966;BMP280;54749;47.850;9.002;2022-10-31T13:22:09;96132.63;;;17.27
67966;BMP280;54749;47.850;9.002;2022-10-31T13:27:48;96133.38;;;16.95
67966;BMP280;54749;47.850;9.002;2022-10-31T13:30:18;96125.91;;;16.84
67966;BMP280;54749;47.850;9.002;2022-10-31T13:33:01;96122.00;;;16.73
67966;BMP280;54749;47.850;9.002;2022-10-31T13:35:44;96124.44;;;16.57
67966;BMP280;54749;47.850;9.002;2022-10-31T13:38:37;96122.69;;;16.58
67966;BMP280;54749;47.850;9.002;2022-10-31T13:41:11;96109.84;;;16.50
67966;BMP280;54749;47.850;9.002;2022-10-31T13:46:34;96110.63;;;16.50
67966;BMP280;54749;47.850;9.002;2022-10-31T13:49:03;96098.47;;;16.45
67966;BMP280;54749;47.850;9.002;2022-10-31T13:51:32;96103.34;;;16.38
67966;BMP280;54749;47.850;9.002;2022-10-31T13:54:06;96100.50;;;16.41
67966;BMP280;54749;47.850;9.002;2022-10-31T13:56:34;96096.81;;;16.36
67966;BMP280;54749;47.850;9.002;2022-10-31T14:01:35;96098.19;;;16.30
67966;BMP280;54749;47.850;9.002;2022-10-31T14:04:18;96105.41;;;16.35
67966;BMP280;54749;47.850;9.002;2022-10-31T14:06:53;96087.81;;;16.32
67966;BMP280;54749;47.850;9.002;2022-10-31T14:09:27;96090.97;;;16.26
67966;BMP280;54749;47.850;9.002;2022-10-31T14:11:56;96092.34;;;16.21
67966;BMP280;54749;47.850;9.002;2022-10-31T14:14:30;96093.22;;;16.12
67966;BMP280;54749;47.850;9.002;2022-10-31T14:16:59;96097.38;;;15.96
67966;BMP280;54749;47.850;9.002;2022-10-31T14:19:26;96093.13;;;15.78
67966;BMP280;54749;47.850;9.002;2022-10-31T14:21:53;96097.00;;;15.56
67966;BMP280;54749;47.850;9.002;2022-10-31T14:26:59;96098.53;;;15.13
67966;BMP280;54749;47.850;9.002;2022-10-31T14:29:29;96101.13;;;14.95
67966;BMP280;54749;47.850;9.002;2022-10-31T14:34:57;96078.47;;;14.83
67966;BMP280;54749;47.850;9.002;2022-10-31T14:40:11;96072.88;;;14.70
67966;BMP280;54749;47.850;9.002;2022-10-31T14:45:59;96075.56;;;14.50
67966;BMP280;54749;47.850;9.002;2022-10-31T14:51:35;96072.25;;;14.31
67966;BMP280;54749;47.850;9.002;2022-10-31T14:54:05;96067.84;;;14.24
67966;BMP280;54749;47.850;9.002;2022-10-31T14:56:34;96070.00;;;14.19
67966;BMP280;54749;47.850;9.002;2022-10-31T14:59:11;96063.56;;;14.15
67966;BMP280;54749;47.850;9.002;2022-10-31T15:01:39;96064.09;;;14.09
67966;BMP280;54749;47.850;9.002;2022-10-31T15:04:13;96061.16;;;14.04
67966;BMP280;54749;47.850;9.002;2022-10-31T15:06:57;96065.41;;;13.95
67966;BMP280;54749;47.850;9.002;2022-10-31T15:09:29;96068.50;;;13.89
67966;BMP280;54749;47.850;9.002;2022-10-31T15:12:16;96065.69;;;13.83
67966;BMP280;54749;47.850;9.002;2022-10-31T15:14:47;96058.94;;;13.72
67966;BMP280;54749;47.850;9.002;2022-10-31T15:17:15;96057.19;;;13.64
67966;BMP280;54749;47.850;9.002;2022-10-31T15:19:42;96051.72;;;13.59
67966;BMP280;54749;47.850;9.002;2022-10-31T15:22:14;96056.78;;;13.49
67966;BMP280;54749;47.850;9.002;2022-10-31T15:24:42;96061.69;;;13.42
67966;BMP280;54749;47.850;9.002;2022-10-31T15:27:15;96062.31;;;13.34
67966;BMP280;54749;47.850;9.002;2022-10-31T15:32:27;96055.06;;;13.21
67966;BMP280;54749;47.850;9.002;2022-10-31T15:34:55;96049.56;;;13.16
67966;BMP280;54749;47.850;9.002;2022-10-31T15:37:25;96057.28;;;13.05
67966;BMP280;54749;47.850;9.002;2022-10-31T15:39:52;96046.16;;;12.97
67966;BMP280;54749;47.850;9.002;2022-10-31T15:44:58;96032.59;;;12.78
67966;BMP280;54749;47.850;9.002;2022-10-31T15:47:28;96035.06;;;12.69
67966;BMP280;54749;47.850;9.002;2022-10-31T15:50:00;96043.53;;;12.59
67966;BMP280;54749;47.850;9.002;2022-10-31T15:52:34;96046.94;;;12.48
67966;BMP280;54749;47.850;9.002;2022-10-31T15:57:44;96047.69;;;12.40
67966;BMP280;54749;47.850;9.002;2022-10-31T16:00:32;96050.03;;;12.32
67966;BMP280;54749;47.850;9.002;2022-10-31T16:05:50;96048.84;;;12.16
67966;BMP280;54749;47.850;9.002;2022-10-31T16:08:32;96057.19;;;12.07
67966;BMP280;54749;47.850;9.002;2022-10-31T16:11:25;96050.06;;;12.01
67966;BMP280;54749;47.850;9.002;2022-10-31T16:14:04;96048.94;;;11.94
67966;BMP280;54749;47.850;9.002;2022-10-31T16:16:33;96054.16;;;11.82
67966;BMP280;54749;47.850;9.002;2022-10-31T16:19:04;96051.22;;;11.67
67966;BMP280;54749;47.850;9.002;2022-10-31T16:21:34;96041.69;;;11.59
67966;BMP280;54749;47.850;9.002;2022-10-31T16:24:17;96043.97;;;11.62
67966;BMP280;54749;47.850;9.002;2022-10-31T16:26:49;96036.03;;;11.56
67966;BMP280;54749;47.850;9.002;2022-10-31T16:29:42;96048.38;;;11.50
67966;BMP280;54749;47.850;9.002;2022-10-31T16:32:29;96049.06;;;11.52
67966;BMP280;54749;47.850;9.002;2022-10-31T16:37:42;96041.34;;;11.53
67966;BMP280;54749;47.850;9.002;2022-10-31T16:40:13;96052.28;;;11.54
67966;BMP280;54749;47.850;9.002;2022-10-31T16:42:51;96043.78;;;11.55
67966;BMP280;54749;47.850;9.002;2022-10-31T16:45:23;96050.47;;;11.56
67966;BMP280;54749;47.850;9.002;2022-10-31T16:48:19;96054.00;;;11.53
67966;BMP280;54749;47.850;9.002;2022-10-31T16:50:49;96066.56;;;11.55
67966;BMP280;54749;47.850;9.002;2022-10-31T16:53:18;96064.38;;;11.50
67966;BMP280;54749;47.850;9.002;2022-10-31T16:55:57;96056.09;;;11.48
67966;BMP280;54749;47.850;9.002;2022-10-31T16:58:28;96067.94;;;11.48
67966;BMP280;54749;47.850;9.002;2022-10-31T17:00:56;96057.81;;;11.48
67966;BMP280;54749;47.850;9.002;2022-10-31T17:03:24;96057.69;;;11.49
67966;BMP280;54749;47.850;9.002;2022-10-31T17:06:14;96052.75;;;11.48
67966;BMP280;54749;47.850;9.002;2022-10-31T17:08:41;96074.84;;;11.46
67966;BMP280;54749;47.850;9.002;2022-10-31T17:11:15;96081.53;;;11.47